createdAt,value
2023-05-14T00:01:54.350Z,10.95
2023-05-14T00:04:21.002Z,10.99
2023-05-14T00:06:47.717Z,11.18
2023-05-14T00:09:17.422Z,11.12
2023-05-14T00:11:44.574Z,11.18
2023-05-14T00:14:11.075Z,11.17
2023-05-14T00:16:38.031Z,11.00
2023-05-14T00:19:07.049Z,10.81
2023-05-14T00:21:33.854Z,10.84
2023-05-14T00:24:00.654Z,11.08
2023-05-14T00:26:27.788Z,10.84
2023-05-14T00:28:54.577Z,10.77
2023-05-14T00:31:23.888Z,10.76
2023-05-14T00:33:52.630Z,10.58
2023-05-14T00:36:19.574Z,10.63
2023-05-14T00:38:46.128Z,10.61
2023-05-14T00:41:12.677Z,10.80
2023-05-14T00:43:40.106Z,10.81
2023-05-14T00:46:08.851Z,10.76
2023-05-14T00:48:36.109Z,10.76
2023-05-14T00:51:10.140Z,10.70
2023-05-14T00:53:37.351Z,10.62
2023-05-14T00:56:03.969Z,10.68
2023-05-14T00:58:32.323Z,10.91
2023-05-14T01:01:00.031Z,10.94
2023-05-14T01:03:29.121Z,10.83
2023-05-14T01:06:17.621Z,10.69
2023-05-14T01:09:05.537Z,10.75
2023-05-14T01:11:49.397Z,10.61
2023-05-14T01:14:30.730Z,10.41
2023-05-14T01:16:58.729Z,10.50
2023-05-14T01:19:45.005Z,10.42
2023-05-14T01:22:20.341Z,10.26
2023-05-14T01:24:48.167Z,10.33
2023-05-14T01:27:21.743Z,10.21
2023-05-14T01:29:53.743Z,10.33
2023-05-14T01:32:38.589Z,10.50
2023-05-14T01:35:05.757Z,10.67
2023-05-14T01:37:32.233Z,10.75
2023-05-14T01:40:03.556Z,10.69
2023-05-14T01:42:31.305Z,10.59
2023-05-14T01:44:59.498Z,10.45
2023-05-14T01:47:27.030Z,10.38
2023-05-14T01:49:54.404Z,10.31
2023-05-14T01:52:21.661Z,10.12
2023-05-14T01:54:48.669Z,10.09
2023-05-14T01:57:16.258Z,10.25
2023-05-14T01:59:44.312Z,10.41
2023-05-14T02:02:10.778Z,10.49
2023-05-14T02:04:39.026Z,10.18
2023-05-14T02:07:08.402Z,10.14
2023-05-14T02:09:35.190Z,10.06
2023-05-14T02:12:01.914Z,10.17
2023-05-14T02:14:28.837Z,10.06
2023-05-14T02:16:57.227Z,9.97
2023-05-14T02:19:25.310Z,9.97
2023-05-14T02:21:52.333Z,9.94
2023-05-14T02:24:20.102Z,9.98
2023-05-14T02:26:46.588Z,10.35
2023-05-14T02:29:13.381Z,10.06
2023-05-14T02:31:41.901Z,10.21
2023-05-14T02:34:08.678Z,10.22
2023-05-14T02:36:36.938Z,10.29
2023-05-14T02:39:04.617Z,10.12
2023-05-14T02:41:32.611Z,10.00
2023-05-14T02:43:59.090Z,10.04
2023-05-14T02:46:26.052Z,10.07
2023-05-14T02:48:52.821Z,9.93
2023-05-14T02:51:21.163Z,9.76
2023-05-14T02:53:52.869Z,9.67
2023-05-14T02:56:19.670Z,9.67
2023-05-14T02:58:46.431Z,9.70
2023-05-14T03:01:12.954Z,9.65
2023-05-14T03:03:40.006Z,9.69
2023-05-14T03:06:08.483Z,9.92
2023-05-14T03:08:38.494Z,10.00
2023-05-14T03:11:05.364Z,10.17
2023-05-14T03:13:38.318Z,10.27
2023-05-14T03:16:06.055Z,10.38
2023-05-14T03:18:33.667Z,10.39
2023-05-14T03:21:04.903Z,10.39
2023-05-14T03:23:35.092Z,10.40
2023-05-14T03:26:06.979Z,10.26
2023-05-14T03:28:33.458Z,10.04
2023-05-14T03:31:01.219Z,10.01
2023-05-14T03:33:29.591Z,9.98
2023-05-14T03:35:56.101Z,9.93
2023-05-14T03:38:22.859Z,10.01
2023-05-14T03:40:49.346Z,9.93
2023-05-14T03:43:17.709Z,10.12
2023-05-14T03:45:44.208Z,9.92
2023-05-14T03:48:11.021Z,10.17
2023-05-14T03:50:38.705Z,10.20
2023-05-14T03:53:07.768Z,10.03
2023-05-14T03:55:36.937Z,10.17
2023-05-14T03:58:07.339Z,10.11
2023-05-14T04:00:33.837Z,9.98
2023-05-14T04:03:09.423Z,9.96
2023-05-14T04:05:36.859Z,10.00
2023-05-14T04:08:03.956Z,10.15
2023-05-14T04:10:34.444Z,10.39
2023-05-14T04:13:03.474Z,10.57
2023-05-14T04:15:30.227Z,10.80
2023-05-14T04:17:57.714Z,11.01
2023-05-14T04:20:25.893Z,11.23
2023-05-14T04:22:52.953Z,11.49
2023-05-14T04:25:20.392Z,11.54
2023-05-14T04:27:49.964Z,11.61
2023-05-14T04:30:18.297Z,11.82
2023-05-14T04:32:45.154Z,12.16
2023-05-14T04:35:13.207Z,12.27
2023-05-14T04:37:41.800Z,12.46
2023-05-14T04:40:08.988Z,12.73
2023-05-14T04:42:36.476Z,12.90
2023-05-14T04:45:05.098Z,13.06
2023-05-14T04:47:31.828Z,13.19
2023-05-14T04:49:59.188Z,13.38
2023-05-14T04:52:26.857Z,13.51
2023-05-14T04:54:57.062Z,13.68
2023-05-14T04:57:23.401Z,13.87
2023-05-14T04:59:50.085Z,13.99
2023-05-14T05:02:19.993Z,14.15
2023-05-14T05:04:49.710Z,14.30
2023-05-14T05:07:16.600Z,14.43
2023-05-14T05:09:44.191Z,14.46
2023-05-14T05:12:10.936Z,14.54
2023-05-14T05:14:37.668Z,14.64
2023-05-14T05:17:05.716Z,14.72
2023-05-14T05:19:42.492Z,14.54
2023-05-14T05:22:10.492Z,14.51
2023-05-14T05:24:38.832Z,14.70
2023-05-14T05:27:06.026Z,14.59
2023-05-14T05:29:34.587Z,14.89
2023-05-14T05:32:02.302Z,15.14
2023-05-14T05:34:29.084Z,15.36
2023-05-14T05:36:57.150Z,15.53
2023-05-14T05:39:25.843Z,15.54
2023-05-14T05:41:53.448Z,15.65
2023-05-14T05:44:20.607Z,15.40
2023-05-14T05:46:48.739Z,15.46
2023-05-14T05:49:15.217Z,15.71
2023-05-14T05:51:41.726Z,15.95
2023-05-14T05:54:08.218Z,16.10
2023-05-14T05:56:34.733Z,16.24
2023-05-14T05:59:01.207Z,16.09
2023-05-14T06:01:27.971Z,16.31
2023-05-14T06:03:58.568Z,16.31
2023-05-14T06:06:25.067Z,16.13
2023-05-14T06:08:53.892Z,16.41
2023-05-14T06:11:22.036Z,16.26
2023-05-14T06:13:50.847Z,16.51
2023-05-14T06:16:17.699Z,16.31
2023-05-14T06:18:44.209Z,16.35
2023-05-14T06:21:12.490Z,16.40
2023-05-14T06:23:38.959Z,16.46
2023-05-14T06:26:06.999Z,16.31
2023-05-14T06:28:34.156Z,16.72
2023-05-14T06:31:02.786Z,16.69
2023-05-14T06:33:32.126Z,16.60
2023-05-14T06:35:59.419Z,16.57
2023-05-14T06:38:28.127Z,16.62
2023-05-14T06:40:54.681Z,16.82
2023-05-14T06:43:23.857Z,16.69
2023-05-14T06:45:59.589Z,16.45
2023-05-14T06:48:32.397Z,16.58
2023-05-14T06:51:00.841Z,16.61
2023-05-14T06:53:28.530Z,17.03
2023-05-14T06:55:59.182Z,16.56
2023-05-14T06:58:25.682Z,16.84
2023-05-14T07:00:52.448Z,17.19
2023-05-14T07:03:19.757Z,17.62
2023-05-14T07:05:48.018Z,17.82
2023-05-14T07:08:16.573Z,17.79
2023-05-14T07:10:43.037Z,18.16
2023-05-14T07:13:11.935Z,17.90
2023-05-14T07:15:39.117Z,17.22
2023-05-14T07:18:05.666Z,17.17
2023-05-14T07:20:33.864Z,17.35
2023-05-14T07:23:01.564Z,17.72
2023-05-14T07:25:28.036Z,17.55
2023-05-14T07:27:55.889Z,17.81
2023-05-14T07:30:22.584Z,18.08
2023-05-14T07:32:52.199Z,18.11
2023-05-14T07:35:18.994Z,18.19
2023-05-14T07:37:45.462Z,18.23
2023-05-14T07:40:12.131Z,17.98
2023-05-14T07:42:40.799Z,17.80
2023-05-14T07:45:08.761Z,17.20
2023-05-14T07:47:35.440Z,17.38
2023-05-14T07:50:03.997Z,17.69
2023-05-14T07:52:31.573Z,17.91
2023-05-14T07:54:58.057Z,17.74
2023-05-14T07:57:26.296Z,17.91
2023-05-14T07:59:52.788Z,17.85
2023-05-14T08:02:22.519Z,18.42
2023-05-14T08:04:50.436Z,19.03
2023-05-14T08:07:17.304Z,19.01
2023-05-14T08:09:48.469Z,19.33
2023-05-14T08:12:16.820Z,19.54
2023-05-14T08:14:44.993Z,19.25
2023-05-14T08:17:11.571Z,19.53
2023-05-14T08:19:39.172Z,18.93
2023-05-14T08:22:05.999Z,19.13
2023-05-14T08:24:32.644Z,19.73
2023-05-14T08:26:59.205Z,19.88
2023-05-14T08:29:25.923Z,19.78
2023-05-14T08:31:52.729Z,19.61
2023-05-14T08:34:19.208Z,18.97
2023-05-14T08:36:48.044Z,19.58
2023-05-14T08:39:14.787Z,20.00
2023-05-14T08:41:42.255Z,19.73
2023-05-14T08:44:50.411Z,19.46
2023-05-14T08:47:26.908Z,19.73
2023-05-14T08:50:00.818Z,19.58
2023-05-14T08:52:30.732Z,20.26
2023-05-14T08:54:58.106Z,20.56
2023-05-14T08:57:26.585Z,20.92
2023-05-14T08:59:53.743Z,20.67
2023-05-14T09:02:25.656Z,20.88
2023-05-14T09:05:00.316Z,20.86
2023-05-14T09:07:27.435Z,20.56
2023-05-14T09:09:56.497Z,19.54
2023-05-14T09:12:25.774Z,19.97
2023-05-14T09:14:53.266Z,19.06
2023-05-14T09:17:23.227Z,18.99
2023-05-14T09:19:52.906Z,19.61
2023-05-14T09:22:19.973Z,19.79
2023-05-14T09:24:46.773Z,20.26
2023-05-14T09:27:22.209Z,20.63
2023-05-14T09:29:54.401Z,20.09
2023-05-14T09:32:21.359Z,19.89
2023-05-14T09:34:48.104Z,19.98
2023-05-14T09:37:17.109Z,20.28
2023-05-14T09:39:45.692Z,20.12
2023-05-14T09:42:12.180Z,20.49
2023-05-14T09:44:39.270Z,21.25
2023-05-14T09:47:06.031Z,21.18
2023-05-14T09:49:36.752Z,21.72
2023-05-14T09:52:03.698Z,21.94
2023-05-14T09:54:30.201Z,21.61
2023-05-14T09:56:56.670Z,21.60
2023-05-14T09:59:23.462Z,21.41
2023-05-14T10:01:49.927Z,20.61
2023-05-14T10:04:16.472Z,19.80
2023-05-14T10:06:44.014Z,19.71
2023-05-14T10:09:12.539Z,20.29
2023-05-14T10:11:39.116Z,20.14
2023-05-14T10:14:09.921Z,20.01
2023-05-14T10:16:46.762Z,20.21
2023-05-14T10:19:15.570Z,20.13
2023-05-14T10:21:44.091Z,20.57
2023-05-14T10:24:15.603Z,20.26
2023-05-14T10:26:45.311Z,20.42
2023-05-14T10:29:12.917Z,20.90
2023-05-14T10:31:55.784Z,21.88
2023-05-14T10:34:31.410Z,22.35
2023-05-14T10:37:09.338Z,21.31
2023-05-14T10:39:53.776Z,20.10
2023-05-14T10:42:33.913Z,20.22
2023-05-14T10:45:10.663Z,20.01
2023-05-14T10:47:39.269Z,19.91
2023-05-14T10:50:09.398Z,19.80
2023-05-14T10:52:37.641Z,19.47
2023-05-14T10:55:11.218Z,20.09
2023-05-14T10:57:40.040Z,20.59
2023-05-14T11:00:08.954Z,20.60
2023-05-14T11:02:40.426Z,20.55
2023-05-14T11:05:15.467Z,21.51
2023-05-14T11:08:07.817Z,21.77
2023-05-14T11:10:34.306Z,21.26
2023-05-14T11:13:00.786Z,21.26
2023-05-14T11:15:29.340Z,21.27
2023-05-14T11:17:57.199Z,22.28
2023-05-14T11:20:24.251Z,23.08
2023-05-14T11:22:54.738Z,23.06
2023-05-14T11:25:22.863Z,23.23
2023-05-14T11:27:58.363Z,22.40
2023-05-14T11:30:26.260Z,20.89
2023-05-14T11:32:54.236Z,20.55
2023-05-14T11:35:20.823Z,20.47
2023-05-14T11:37:51.656Z,20.83
2023-05-14T11:40:18.769Z,20.92
2023-05-14T11:42:46.157Z,21.32
2023-05-14T11:45:26.008Z,21.02
2023-05-14T11:48:01.351Z,20.96
2023-05-14T11:50:28.170Z,21.12
2023-05-14T11:53:01.727Z,21.37
2023-05-14T11:55:28.694Z,21.74
2023-05-14T11:57:55.168Z,21.47
2023-05-14T12:00:25.608Z,21.64
2023-05-14T12:02:52.271Z,21.30
2023-05-14T12:05:20.363Z,21.74
2023-05-14T12:11:31.983Z,21.99
2023-05-14T12:14:01.425Z,22.25
2023-05-14T12:16:31.446Z,22.52
2023-05-14T12:19:01.751Z,22.91
2023-05-14T12:21:28.960Z,23.49
2023-05-14T12:23:59.399Z,23.29
2023-05-14T12:26:26.285Z,22.57
2023-05-14T12:28:59.536Z,22.82
2023-05-14T12:31:32.906Z,23.56
2023-05-14T12:33:59.922Z,24.07
2023-05-14T12:36:26.345Z,23.02
2023-05-14T12:39:00.805Z,21.87
2023-05-14T12:41:27.662Z,21.58
2023-05-14T12:43:54.128Z,21.06
2023-05-14T12:46:20.614Z,21.24
2023-05-14T12:48:47.096Z,20.72
2023-05-14T12:51:13.543Z,20.58
2023-05-14T12:53:39.981Z,20.04
2023-05-14T12:56:06.581Z,19.82
2023-05-14T12:58:33.012Z,19.96
2023-05-14T13:00:59.540Z,20.32
2023-05-14T13:03:26.585Z,20.97
2023-05-14T13:05:53.343Z,21.67
2023-05-14T13:08:21.513Z,21.21
2023-05-14T13:10:48.063Z,21.68
2023-05-14T13:13:17.571Z,21.79
2023-05-14T13:15:46.589Z,21.68
2023-05-14T13:18:13.767Z,21.26
2023-05-14T13:20:42.439Z,21.04
2023-05-14T13:23:09.623Z,21.88
2023-05-14T13:25:36.057Z,20.97
2023-05-14T13:28:02.571Z,21.73
2023-05-14T13:30:29.709Z,22.65
2023-05-14T13:32:56.173Z,21.72
2023-05-14T13:35:22.889Z,21.53
2023-05-14T13:37:49.582Z,21.07
2023-05-14T13:40:16.886Z,20.92
2023-05-14T13:42:43.359Z,20.92
2023-05-14T13:45:10.138Z,20.17
2023-05-14T13:47:36.658Z,19.99
2023-05-14T13:50:03.250Z,20.00
2023-05-14T13:52:29.679Z,19.73
2023-05-14T13:54:56.478Z,19.07
2023-05-14T13:57:23.059Z,19.05
2023-05-14T13:59:49.519Z,19.09
2023-05-14T14:02:15.988Z,19.08
2023-05-14T14:04:42.440Z,18.78
2023-05-14T14:07:09.085Z,19.09
2023-05-14T14:09:36.846Z,18.68
2023-05-14T14:12:03.950Z,18.70
2023-05-14T14:14:30.427Z,18.77
2023-05-14T14:16:56.843Z,18.45
2023-05-14T14:19:23.755Z,18.75
2023-05-14T14:24:21.929Z,18.81
2023-05-14T14:26:48.366Z,18.74
2023-05-14T14:29:14.876Z,17.74
2023-05-14T14:31:41.406Z,17.68
2023-05-14T14:34:07.914Z,17.65
2023-05-14T14:36:34.378Z,17.49
2023-05-14T14:39:00.823Z,17.47
2023-05-14T14:41:27.357Z,17.42
2023-05-14T14:43:53.842Z,17.50
2023-05-14T14:46:20.354Z,17.61
2023-05-14T14:48:46.873Z,17.73
2023-05-14T14:51:13.350Z,17.82
2023-05-14T14:53:40.425Z,17.93
2023-05-14T14:56:06.929Z,17.60
2023-05-14T14:58:33.361Z,17.55
2023-05-14T15:01:00.226Z,17.64
2023-05-14T15:03:27.001Z,17.62
2023-05-14T15:05:53.856Z,17.91
2023-05-14T15:08:22.675Z,18.02
2023-05-14T15:10:49.151Z,18.38
2023-05-14T15:13:15.632Z,18.43
2023-05-14T15:15:42.114Z,18.78
2023-05-14T15:18:08.638Z,18.97
2023-05-14T15:20:35.187Z,19.32
2023-05-14T15:23:01.630Z,19.34
2023-05-14T15:25:28.289Z,19.75
2023-05-14T15:27:54.739Z,19.85
2023-05-14T15:30:21.183Z,20.06
2023-05-14T15:32:47.669Z,20.38
2023-05-14T15:35:14.184Z,20.40
2023-05-14T15:37:42.017Z,20.43
2023-05-14T15:40:09.071Z,20.52
2023-05-14T15:42:39.749Z,20.77
2023-05-14T15:45:06.398Z,20.83
2023-05-14T15:47:32.930Z,20.80
2023-05-14T15:49:59.857Z,21.09
2023-05-14T15:52:26.482Z,21.37
2023-05-14T15:54:54.156Z,21.13
2023-05-14T15:57:20.585Z,20.89
2023-05-14T15:59:47.134Z,20.52
2023-05-14T16:02:13.893Z,20.36
2023-05-14T16:04:40.325Z,20.18
2023-05-14T16:07:09.848Z,19.91
2023-05-14T16:09:36.591Z,19.59
2023-05-14T16:12:03.240Z,19.29
2023-05-14T16:14:29.828Z,19.24
2023-05-14T16:16:56.391Z,19.26
2023-05-14T16:19:22.927Z,19.38
2023-05-14T16:21:49.418Z,19.55
2023-05-14T16:24:17.898Z,19.55
2023-05-14T16:26:44.522Z,19.59
2023-05-14T16:29:11.100Z,19.09
2023-05-14T16:31:37.770Z,18.45
2023-05-14T16:34:06.235Z,18.09
2023-05-14T16:36:33.988Z,17.79
2023-05-14T16:41:30.028Z,17.26
2023-05-14T16:43:56.604Z,17.06
2023-05-14T16:46:23.167Z,17.01
2023-05-14T16:48:50.657Z,16.95
2023-05-14T16:51:17.188Z,16.86
2023-05-14T16:53:43.669Z,16.72
2023-05-14T16:56:11.044Z,16.75
2023-05-14T16:58:37.579Z,16.61
2023-05-14T17:01:04.154Z,16.60
2023-05-14T17:03:30.693Z,15.64
2023-05-14T17:05:57.163Z,15.30
2023-05-14T17:08:23.637Z,14.90
2023-05-14T17:10:50.221Z,14.62
2023-05-14T17:13:16.725Z,14.43
2023-05-14T17:15:43.279Z,14.16
2023-05-14T17:18:11.887Z,14.05
2023-05-14T17:20:38.499Z,14.19
2023-05-14T17:23:04.990Z,14.15
2023-05-14T17:25:33.120Z,13.81
2023-05-14T17:28:00.089Z,13.80
2023-05-14T17:30:26.614Z,13.75
2023-05-14T17:32:53.200Z,13.78
2023-05-14T17:35:19.733Z,13.95
2023-05-14T17:37:46.550Z,14.00
2023-05-14T17:40:13.239Z,14.25
2023-05-14T17:42:39.727Z,14.19
2023-05-14T17:45:06.847Z,14.18
2023-05-14T17:47:33.386Z,14.26
2023-05-14T17:49:59.882Z,14.55
2023-05-14T17:52:26.364Z,14.79
2023-05-14T17:54:53.079Z,14.86
2023-05-14T17:57:19.553Z,14.83
2023-05-14T17:59:46.056Z,14.90
2023-05-14T18:02:12.535Z,15.01
2023-05-14T18:04:39.040Z,14.72
2023-05-14T18:07:05.568Z,14.74
2023-05-14T18:09:32.497Z,14.60
2023-05-14T18:11:58.996Z,14.65
2023-05-14T18:14:25.551Z,14.58
2023-05-14T18:16:52.337Z,14.33
2023-05-14T18:19:19.434Z,14.46
2023-05-14T18:21:48.061Z,14.38
2023-05-14T18:24:14.616Z,14.37
2023-05-14T18:26:41.089Z,14.32
2023-05-14T18:29:07.549Z,14.18
2023-05-14T18:31:34.047Z,14.06
2023-05-14T18:34:00.889Z,14.00
2023-05-14T18:36:27.374Z,13.90
2023-05-14T18:38:53.843Z,13.66
2023-05-14T18:41:21.412Z,13.64
2023-05-14T18:43:47.951Z,13.58
2023-05-14T18:46:14.486Z,13.55
2023-05-14T18:48:41.296Z,13.30
2023-05-14T18:51:08.098Z,13.23
2023-05-14T18:53:34.609Z,13.18
2023-05-14T18:56:01.108Z,13.26
2023-05-14T18:58:28.144Z,13.25
2023-05-14T19:00:57.678Z,13.20
2023-05-14T19:03:24.499Z,13.11
2023-05-14T19:05:53.120Z,13.07
2023-05-14T19:08:19.636Z,12.99
2023-05-14T19:10:46.220Z,13.03
2023-05-14T19:13:12.706Z,13.05
2023-05-14T19:15:39.285Z,13.09
2023-05-14T19:18:05.933Z,13.00
2023-05-14T19:20:32.437Z,13.24
2023-05-14T19:22:58.922Z,13.01
2023-05-14T19:25:25.608Z,13.02
2023-05-14T19:27:53.587Z,12.96
2023-05-14T19:30:21.278Z,12.93
2023-05-14T19:32:47.801Z,12.93
2023-05-14T19:35:14.311Z,12.82
2023-05-14T19:37:40.813Z,12.63
2023-05-14T19:40:07.766Z,12.68
2023-05-14T19:42:34.300Z,12.72
2023-05-14T19:45:00.784Z,12.50
2023-05-14T19:47:28.518Z,12.60
2023-05-14T19:49:55.185Z,12.58
2023-05-14T19:52:21.666Z,12.48
2023-05-14T19:54:48.111Z,12.37
2023-05-14T19:57:14.627Z,12.34
2023-05-14T19:59:41.448Z,12.34
2023-05-14T20:02:09.067Z,12.25
2023-05-14T20:04:35.708Z,12.18
2023-05-14T20:07:02.685Z,12.17
2023-05-14T20:09:29.174Z,12.20
2023-05-14T20:11:55.656Z,12.29
2023-05-14T20:14:22.158Z,12.32
2023-05-14T20:16:49.004Z,12.31
2023-05-14T20:19:16.299Z,12.32
2023-05-14T20:21:42.905Z,12.27
2023-05-14T20:24:09.449Z,12.29
2023-05-14T20:26:35.952Z,12.21
2023-05-14T20:29:02.452Z,12.16
2023-05-14T20:31:29.130Z,12.20
2023-05-14T20:33:55.664Z,12.22
2023-05-14T20:36:22.231Z,12.35
2023-05-14T20:38:48.803Z,12.30
2023-05-14T20:41:15.353Z,12.07
2023-05-14T20:43:41.840Z,12.12
2023-05-14T20:46:08.997Z,12.07
2023-05-14T20:48:35.570Z,12.10
2023-05-14T20:51:04.721Z,12.15
2023-05-14T20:53:31.529Z,12.14
2023-05-14T20:55:58.977Z,12.01
2023-05-14T20:58:25.596Z,12.00
2023-05-14T21:00:52.080Z,12.08
2023-05-14T21:03:18.650Z,12.04
2023-05-14T21:05:45.665Z,12.05
2023-05-14T21:08:12.154Z,12.03
2023-05-14T21:10:38.947Z,12.01
2023-05-14T21:13:05.415Z,12.03
2023-05-14T21:15:32.650Z,12.02
2023-05-14T21:17:59.209Z,11.87
2023-05-14T21:20:25.802Z,12.04
2023-05-14T21:22:52.271Z,12.04
2023-05-14T21:25:19.124Z,12.00
2023-05-14T21:27:45.645Z,12.06
2023-05-14T21:30:12.765Z,11.97
2023-05-14T21:32:39.322Z,11.94
2023-05-14T21:35:06.111Z,11.66
2023-05-14T21:37:32.789Z,11.78
2023-05-14T21:39:59.273Z,11.92
2023-05-14T21:42:25.803Z,12.00
2023-05-14T21:44:52.285Z,12.07
2023-05-14T21:47:19.885Z,12.01
2023-05-14T21:49:46.355Z,11.89
2023-05-14T21:52:13.147Z,11.69
2023-05-14T21:54:39.634Z,11.64
2023-05-14T21:57:06.453Z,11.77
2023-05-14T21:59:33.608Z,11.79
2023-05-14T22:04:29.481Z,11.83
2023-05-14T22:06:56.071Z,11.81
2023-05-14T22:09:22.522Z,11.83
2023-05-14T22:11:49.020Z,11.85
2023-05-14T22:14:15.513Z,11.78
2023-05-14T22:16:42.019Z,11.77
2023-05-14T22:19:08.610Z,11.80
2023-05-14T22:21:35.173Z,11.84
2023-05-14T22:24:01.727Z,11.76
2023-05-14T22:26:28.239Z,11.81
2023-05-14T22:28:56.805Z,11.76
2023-05-14T22:31:23.384Z,11.84
2023-05-14T22:33:49.921Z,11.82
2023-05-14T22:36:16.674Z,11.77
2023-05-14T22:38:43.809Z,11.68
2023-05-14T22:41:10.845Z,11.62
2023-05-14T22:43:37.366Z,11.57
2023-05-14T22:46:04.022Z,11.52
2023-05-14T22:48:30.547Z,11.56
2023-05-14T22:50:57.062Z,11.55
2023-05-14T22:53:25.137Z,11.45
2023-05-14T22:55:51.852Z,11.48
2023-05-14T22:58:18.404Z,11.60
2023-05-14T23:00:44.880Z,11.57
2023-05-14T23:03:11.364Z,11.63
2023-05-14T23:05:37.853Z,11.66
2023-05-14T23:08:04.532Z,11.77
2023-05-14T23:10:31.235Z,11.70
2023-05-14T23:12:57.720Z,11.74
2023-05-14T23:15:24.422Z,11.76
2023-05-14T23:17:51.085Z,11.67
2023-05-14T23:20:17.649Z,11.62
2023-05-14T23:22:44.136Z,11.62
2023-05-14T23:25:10.602Z,11.57
2023-05-14T23:27:37.353Z,11.66
2023-05-14T23:30:04.268Z,11.58
2023-05-14T23:32:30.752Z,11.63
2023-05-14T23:34:57.255Z,11.72
2023-05-14T23:37:23.729Z,11.75
2023-05-14T23:39:50.237Z,11.69
2023-05-14T23:42:16.759Z,11.74
2023-05-14T23:44:43.604Z,11.65
2023-05-14T23:47:10.311Z,11.84
2023-05-14T23:49:36.985Z,11.82
2023-05-14T23:52:03.508Z,11.84
2023-05-14T23:54:30.162Z,11.85
2023-05-14T23:56:56.642Z,11.77
2023-05-14T23:59:23.206Z,11.80
